Time;durP1;ratioP1;P1;durP2;ratioP2;P2;SDS_P1;SDS_P2;PMS_P1;PMS_P2;Temp;Humidity;BMP_temperature;BMP_pressure;BME280_temperature;BME280_humidity;BME280_pressure;Samples;Min_cycle;Max_cycle;Signal;HPM_P1;HPM_P2
2022/01/26 05:02:55;;;;;;;35.05;16.70;;;4.50;99.90;;;;;;4921875;29;20277;-66
2022/01/26 05:05:22;;;;;;;34.92;15.23;;;4.50;99.90;;;;;;4916691;29;20211;-67
2022/01/26 05:07:48;;;;;;;30.60;14.35;;;4.50;99.90;;;;;;4930633;29;20210;-67
2022/01/26 05:10:15;;;;;;;29.63;14.48;;;4.40;99.90;;;;;;4932423;29;20202;-67
2022/01/26 05:12:42;;;;;;;36.80;14.93;;;4.40;99.90;;;;;;4931818;29;20213;-66
2022/01/26 05:15:09;;;;;;;32.28;16.65;;;4.40;99.90;;;;;;4932909;29;20722;-66
2022/01/26 05:17:37;;;;;;;32.88;15.10;;;4.40;99.90;;;;;;4915536;29;20210;-65
2022/01/26 05:20:08;;;;;;;34.22;15.77;;;4.40;99.90;;;;;;4913896;29;20218;-65
2022/01/26 05:22:35;;;;;;;32.20;14.15;;;4.40;99.90;;;;;;4913924;29;20333;-66
2022/01/26 05:25:01;;;;;;;31.70;16.33;;;4.40;99.90;;;;;;4913689;29;20607;-66
2022/01/26 05:27:28;;;;;;;33.75;15.60;;;4.40;99.90;;;;;;4927554;29;20656;-66
2022/01/26 05:29:55;;;;;;;31.75;14.00;;;4.40;99.90;;;;;;4919224;29;20578;-66
2022/01/26 05:32:22;;;;;;;34.67;14.65;;;4.40;99.90;;;;;;4920166;29;20291;-66
2022/01/26 05:34:49;;;;;;;37.00;14.27;;;4.40;99.90;;;;;;4916459;29;20227;-66
2022/01/26 05:37:17;;;;;;;34.03;14.23;;;4.40;99.90;;;;;;4921033;29;20303;-66
2022/01/26 05:39:43;;;;;;;28.55;13.75;;;4.40;99.90;;;;;;4911623;29;20579;-67
2022/01/26 05:42:10;;;;;;;27.50;12.23;;;4.40;99.90;;;;;;4919690;29;20275;-66
2022/01/26 05:44:37;;;;;;;27.88;13.38;;;4.40;99.90;;;;;;4917361;29;20285;-66
2022/01/26 05:47:07;;;;;;;27.95;12.27;;;4.40;99.90;;;;;;4917446;29;20215;-67
2022/01/26 05:49:33;;;;;;;24.63;12.02;;;4.40;99.90;;;;;;4920750;29;20261;-66
2022/01/26 05:52:00;;;;;;;22.73;11.30;;;4.40;99.90;;;;;;4917000;29;20230;-66
2022/01/26 05:54:28;;;;;;;20.30;10.73;;;4.40;99.90;;;;;;4916771;29;20210;-66
2022/01/26 05:56:55;;;;;;;21.98;9.80;;;4.40;99.90;;;;;;4918139;29;20699;-67
2022/01/26 05:59:21;;;;;;;17.75;9.85;;;4.40;99.90;;;;;;4920130;29;20203;-67
2022/01/26 06:01:48;;;;;;;13.45;9.18;;;4.40;99.90;;;;;;4916781;29;20242;-67
2022/01/26 06:04:15;;;;;;;17.10;8.60;;;4.40;99.90;;;;;;4917054;29;20216;-67
2022/01/26 06:06:42;;;;;;;18.08;8.93;;;4.40;99.90;;;;;;4915509;29;20712;-66
2022/01/26 06:09:09;;;;;;;16.20;8.05;;;4.30;99.90;;;;;;4903557;29;20211;-67
2022/01/26 06:11:37;;;;;;;20.05;9.10;;;4.40;99.90;;;;;;4947207;23;20234;-72
2022/01/26 06:14:04;;;;;;;17.67;8.82;;;4.30;99.90;;;;;;4944476;29;20261;-71
2022/01/26 06:16:31;;;;;;;13.75;7.25;;;4.30;99.90;;;;;;4936946;28;20225;-71
2022/01/26 06:18:57;;;;;;;16.95;9.23;;;4.30;99.90;;;;;;4938856;29;20202;-71
2022/01/26 06:21:24;;;;;;;16.05;7.82;;;4.30;99.90;;;;;;4937976;28;20368;-71
2022/01/26 06:23:50;;;;;;;20.52;8.10;;;4.30;99.90;;;;;;4935695;29;20269;-71
2022/01/26 06:26:17;;;;;;;16.45;8.18;;;4.30;99.90;;;;;;4949323;29;20202;-71
2022/01/26 06:28:45;;;;;;;17.77;9.05;;;4.30;99.90;;;;;;4937751;29;20743;-71
2022/01/26 06:31:15;;;;;;;16.80;9.15;;;4.30;99.90;;;;;;4951757;29;20209;-71
2022/01/26 06:33:43;;;;;;;21.40;9.93;;;4.30;99.90;;;;;;4955312;28;20209;-71
2022/01/26 06:36:12;;;;;;;18.48;8.15;;;4.30;99.90;;;;;;4954513;28;20237;-72
2022/01/26 06:38:41;;;;;;;13.43;8.25;;;4.30;99.90;;;;;;4954060;28;20237;-71
2022/01/26 06:41:08;;;;;;;15.18;7.93;;;4.30;99.90;;;;;;4954612;28;20338;-70
2022/01/26 06:43:43;;;;;;;16.40;7.70;;;4.30;99.90;;;;;;4939374;28;20674;-71
2022/01/26 06:46:19;;;;;;;15.02;8.85;;;4.30;99.90;;;;;;4953701;29;20551;-71
2022/01/26 06:49:00;;;;;;;12.88;7.15;;;4.30;99.90;;;;;;4936815;28;20316;-71
2022/01/26 06:51:27;;;;;;;16.90;8.70;;;4.30;99.90;;;;;;4936368;29;20236;-71
2022/01/26 06:53:54;;;;;;;15.40;8.50;;;4.30;99.90;;;;;;4947794;29;20221;-71
2022/01/26 06:56:20;;;;;;;18.92;8.60;;;4.30;99.90;;;;;;4954322;28;20230;-71
2022/01/26 06:58:47;;;;;;;11.30;6.63;;;4.30;99.90;;;;;;4944498;29;20209;-71
2022/01/26 07:01:15;;;;;;;15.88;8.32;;;4.20;99.90;;;;;;4952932;29;20238;-71
2022/01/26 07:03:42;;;;;;;12.48;7.53;;;4.20;99.90;;;;;;4944726;28;20285;-71
2022/01/26 07:06:09;;;;;;;13.65;6.93;;;4.20;99.90;;;;;;4953892;28;20201;-71
2022/01/26 07:08:35;;;;;;;11.60;7.03;;;4.20;99.90;;;;;;4954129;28;20291;-71
2022/01/26 07:11:02;;;;;;;11.68;8.07;;;4.20;99.90;;;;;;4953476;28;20216;-71
2022/01/26 07:13:29;;;;;;;10.15;5.55;;;4.20;99.90;;;;;;4954198;28;20206;-71
2022/01/26 07:21:40;;;;;;;7.65;5.65;;;4.20;99.90;;;;;;4913381;29;20758;-71
2022/01/26 07:24:06;;;;;;;11.07;6.75;;;4.30;99.90;;;;;;4935817;28;20276;-71
2022/01/26 07:26:33;;;;;;;13.68;6.78;;;4.20;99.90;;;;;;4953582;29;20276;-71
2022/01/26 07:29:05;;;;;;;11.38;6.72;;;4.20;99.90;;;;;;4954014;28;20602;-71
2022/01/26 07:31:33;;;;;;;13.98;8.68;;;4.20;99.90;;;;;;4953786;28;20309;-71
2022/01/26 07:34:01;;;;;;;11.57;7.55;;;4.20;99.90;;;;;;4954526;28;20330;-71
2022/01/26 07:36:28;;;;;;;10.43;6.80;;;4.20;99.90;;;;;;4953371;28;20659;-71
2022/01/26 07:39:04;;;;;;;9.27;6.22;;;4.20;99.90;;;;;;4953922;28;20209;-71
2022/01/26 07:41:31;;;;;;;13.30;6.40;;;4.20;99.90;;;;;;4951047;28;20231;-70
2022/01/26 07:43:57;;;;;;;10.80;6.80;;;4.20;99.90;;;;;;4948150;28;20218;-72
2022/01/26 07:46:24;;;;;;;11.38;6.68;;;4.20;99.90;;;;;;4938150;29;20209;-70
2022/01/26 07:48:51;;;;;;;13.45;6.88;;;4.20;99.90;;;;;;4943868;29;20211;-71
2022/01/26 07:51:23;;;;;;;13.23;7.45;;;4.20;99.90;;;;;;4941754;29;20303;-72
2022/01/26 07:53:50;;;;;;;12.52;6.93;;;4.20;99.90;;;;;;4952951;28;20277;-71
2022/01/26 07:56:17;;;;;;;11.20;6.60;;;4.20;99.90;;;;;;4953336;28;20221;-70
2022/01/26 07:58:45;;;;;;;14.38;5.85;;;4.20;99.90;;;;;;4953163;28;20213;-71
2022/01/26 08:01:12;;;;;;;14.35;7.13;;;4.30;99.90;;;;;;4952520;28;20205;-72
2022/01/26 08:03:39;;;;;;;13.45;7.03;;;4.30;99.90;;;;;;4953309;28;20334;-71
2022/01/26 08:06:06;;;;;;;12.20;7.00;;;4.30;99.90;;;;;;4953481;28;20674;-71
2022/01/26 08:08:34;;;;;;;12.10;7.88;;;4.20;99.90;;;;;;4953292;28;20208;-71
2022/01/26 08:11:01;;;;;;;17.42;7.25;;;4.20;99.90;;;;;;4952193;28;20209;-70
2022/01/26 08:13:28;;;;;;;10.00;6.05;;;4.30;99.90;;;;;;4952772;28;20205;-71
2022/01/26 08:15:57;;;;;;;14.65;7.25;;;4.20;99.90;;;;;;4953454;28;20230;-71
2022/01/26 08:18:24;;;;;;;15.32;7.75;;;4.20;99.90;;;;;;4953804;28;20674;-72
2022/01/26 08:20:50;;;;;;;16.40;9.05;;;4.20;99.90;;;;;;4951830;28;20279;-70
2022/01/26 08:23:19;;;;;;;17.65;7.85;;;4.20;99.90;;;;;;4952751;28;20280;-69
2022/01/26 08:25:50;;;;;;;10.05;7.00;;;4.20;99.90;;;;;;4952659;28;20248;-72
2022/01/26 08:28:22;;;;;;;16.73;8.52;;;4.20;99.90;;;;;;4952743;28;20200;-71
2022/01/26 08:30:48;;;;;;;17.60;7.22;;;4.20;99.90;;;;;;4950903;28;20207;-71
2022/01/26 08:33:15;;;;;;;12.95;6.88;;;4.20;99.90;;;;;;4952639;28;20233;-71
2022/01/26 08:35:42;;;;;;;12.50;6.53;;;4.20;99.90;;;;;;4944468;28;20309;-71
2022/01/26 08:38:09;;;;;;;14.35;8.43;;;4.20;99.90;;;;;;4933437;29;20214;-71
2022/01/26 08:40:36;;;;;;;18.80;7.78;;;4.20;99.90;;;;;;4950348;29;20741;-70
2022/01/26 08:43:05;;;;;;;18.15;9.38;;;4.20;99.90;;;;;;4953476;28;20221;-71
2022/01/26 08:45:33;;;;;;;15.02;10.55;;;4.20;99.90;;;;;;4952586;28;20674;-70
2022/01/26 08:48:00;;;;;;;19.80;9.45;;;4.20;99.90;;;;;;4953444;28;20197;-70
2022/01/26 08:50:27;;;;;;;18.10;12.05;;;4.20;99.90;;;;;;4951455;28;20230;-70
2022/01/26 08:52:53;;;;;;;15.93;10.35;;;4.20;99.90;;;;;;4947569;29;20233;-70
2022/01/26 08:55:20;;;;;;;19.08;9.38;;;4.30;99.90;;;;;;4954744;28;20260;-71
2022/01/26 08:57:47;;;;;;;17.27;8.90;;;4.30;99.90;;;;;;4953024;28;20267;-73
2022/01/26 09:00:17;;;;;;;14.77;8.25;;;4.30;99.90;;;;;;4952561;28;20275;-71
2022/01/26 09:02:44;;;;;;;17.98;8.30;;;4.20;99.90;;;;;;4952366;28;20237;-72
2022/01/26 09:05:11;;;;;;;15.68;8.75;;;4.20;99.90;;;;;;4952831;28;20212;-71
2022/01/26 09:07:40;;;;;;;15.38;10.13;;;4.20;99.90;;;;;;4952363;28;20209;-71
2022/01/26 09:10:07;;;;;;;20.25;9.20;;;4.20;99.90;;;;;;4952011;28;20220;-72
2022/01/26 09:12:37;;;;;;;15.60;9.20;;;4.20;99.90;;;;;;4954789;28;20576;-70
2022/01/26 09:15:06;;;;;;;17.70;8.75;;;4.20;99.90;;;;;;4956210;28;20256;-70
2022/01/26 09:17:35;;;;;;;12.82;6.60;;;4.20;99.90;;;;;;4937420;28;20231;-71
2022/01/26 09:20:03;;;;;;;18.75;6.82;;;4.20;99.90;;;;;;4943427;29;20207;-71
2022/01/26 09:22:29;;;;;;;16.15;7.55;;;4.20;99.90;;;;;;4955490;28;20233;-71
2022/01/26 09:24:56;;;;;;;12.57;7.13;;;4.20;99.90;;;;;;4955235;28;20198;-71
2022/01/26 09:27:23;;;;;;;14.15;6.97;;;4.20;99.90;;;;;;4955448;28;20276;-71
2022/01/26 09:29:50;;;;;;;14.73;8.88;;;4.20;99.90;;;;;;4955267;28;20268;-71
2022/01/26 09:32:16;;;;;;;12.55;6.88;;;4.20;99.90;;;;;;4956089;28;20253;-72
2022/01/26 09:34:45;;;;;;;18.38;6.85;;;4.10;99.90;;;;;;4955827;28;20260;-71
2022/01/26 09:37:13;;;;;;;14.85;6.63;;;4.10;99.90;;;;;;4955277;28;20279;-72
2022/01/26 09:39:42;;;;;;;10.18;6.80;;;4.10;99.90;;;;;;4954706;28;20246;-71
2022/01/26 09:42:09;;;;;;;12.38;7.05;;;4.10;99.90;;;;;;4954898;28;20272;-71
2022/01/26 09:44:36;;;;;;;14.43;7.45;;;4.10;99.90;;;;;;4955316;28;20280;-72
2022/01/26 09:47:04;;;;;;;15.07;7.15;;;4.10;99.90;;;;;;4951275;28;20206;-72
2022/01/26 09:49:33;;;;;;;16.23;7.68;;;4.20;99.90;;;;;;4940447;29;20214;-71
2022/01/26 09:52:05;;;;;;;12.23;6.40;;;4.10;99.90;;;;;;4954666;28;20233;-71
2022/01/26 09:54:33;;;;;;;10.88;6.22;;;4.10;99.90;;;;;;4953863;28;20295;-71
2022/01/26 09:57:03;;;;;;;12.45;6.15;;;4.10;99.90;;;;;;4946887;28;20239;-71
2022/01/26 09:59:31;;;;;;;14.65;7.47;;;4.10;99.90;;;;;;4955320;29;20319;-71
2022/01/26 10:01:59;;;;;;;13.85;6.40;;;4.10;99.90;;;;;;4955103;29;20233;-71
2022/01/26 10:04:28;;;;;;;10.30;5.82;;;4.00;99.90;;;;;;4954834;29;20217;-71
2022/01/26 10:07:13;;;;;;;15.15;6.93;;;4.00;99.90;;;;;;4954346;29;20220;-71
2022/01/26 10:09:58;;;;;;;16.73;8.15;;;4.00;99.90;;;;;;4953834;29;20213;-71
2022/01/26 10:18:06;;;;;;;14.75;7.13;;;4.10;99.90;;;;;;4954429;29;20240;-71
2022/01/26 10:20:44;;;;;;;16.23;6.85;;;4.10;99.90;;;;;;4954851;28;20240;-71
2022/01/26 10:23:16;;;;;;;15.40;7.40;;;4.10;99.90;;;;;;4954756;28;20229;-70
2022/01/26 10:25:44;;;;;;;11.07;6.50;;;4.10;99.90;;;;;;4954578;28;20570;-71
2022/01/26 10:28:11;;;;;;;16.83;8.27;;;4.20;99.90;;;;;;4954868;28;20566;-71
2022/01/26 10:30:44;;;;;;;19.80;7.70;;;4.20;99.90;;;;;;4954045;28;20201;-71
2022/01/26 10:33:11;;;;;;;13.80;7.32;;;4.20;99.90;;;;;;4954700;28;20237;-72
2022/01/26 10:35:39;;;;;;;14.75;7.88;;;4.10;99.90;;;;;;4951100;28;20248;-71
2022/01/26 10:38:06;;;;;;;15.07;7.43;;;4.10;99.90;;;;;;4939634;28;20233;-71
2022/01/26 10:40:35;;;;;;;19.23;8.05;;;4.10;99.90;;;;;;4953010;29;20210;-71
2022/01/26 10:43:06;;;;;;;16.75;8.07;;;4.10;99.90;;;;;;4954423;29;20236;-72
2022/01/26 10:45:43;;;;;;;18.13;8.68;;;4.10;99.90;;;;;;4954578;28;20213;-71
2022/01/26 10:48:18;;;;;;;15.60;7.65;;;4.10;99.90;;;;;;4954293;28;20691;-71
2022/01/26 10:51:08;;;;;;;15.35;7.88;;;4.10;99.90;;;;;;4934806;29;20201;-71
2022/01/26 10:53:39;;;;;;;13.88;7.38;;;4.20;99.90;;;;;;4952025;29;20215;-72
2022/01/26 10:56:08;;;;;;;18.27;10.13;;;4.20;99.90;;;;;;4952155;28;20260;-71
2022/01/26 10:58:35;;;;;;;26.05;10.32;;;4.20;99.90;;;;;;4953583;28;20214;-71
2022/01/26 11:01:02;;;;;;;21.30;11.07;;;4.20;99.90;;;;;;4939331;28;20214;-72
2022/01/26 11:03:29;;;;;;;18.70;9.15;;;4.20;99.90;;;;;;4935110;29;20382;-71
2022/01/26 11:05:56;;;;;;;24.52;10.80;;;4.20;99.90;;;;;;4943371;29;20201;-71
2022/01/26 11:08:24;;;;;;;17.48;10.00;;;4.40;99.90;;;;;;4956633;28;20240;-71
2022/01/26 11:10:51;;;;;;;20.48;10.10;;;4.40;99.90;;;;;;4955168;28;20205;-72
2022/01/26 11:13:27;;;;;;;18.50;10.18;;;4.40;99.90;;;;;;4955886;29;20225;-71
2022/01/26 11:15:54;;;;;;;21.25;10.35;;;4.30;99.90;;;;;;4957550;28;20662;-71
2022/01/26 11:18:23;;;;;;;27.15;11.23;;;4.30;99.90;;;;;;4949322;28;20225;-71
2022/01/26 11:20:51;;;;;;;28.48;10.80;;;4.20;99.90;;;;;;4956607;29;20210;-70
2022/01/26 11:23:20;;;;;;;22.52;10.95;;;4.20;99.90;;;;;;4959354;28;20319;-71
2022/01/26 11:25:48;;;;;;;26.27;10.95;;;4.20;99.90;;;;;;4955249;28;20268;-70
2022/01/26 11:28:18;;;;;;;27.80;12.73;;;4.20;99.90;;;;;;4953679;28;20376;-69
2022/01/26 11:30:46;;;;;;;22.65;10.43;;;4.20;99.90;;;;;;4953271;28;20653;-71
2022/01/26 11:33:17;;;;;;;28.42;11.88;;;4.20;99.90;;;;;;4953414;28;20251;-71
2022/01/26 11:35:47;;;;;;;25.92;11.98;;;4.30;99.90;;;;;;4947532;29;20205;-70
2022/01/26 11:38:50;;;;;;;20.90;10.95;;;4.20;99.90;;;;;;4953556;28;20240;-70
2022/01/26 11:46:56;;;;;;;27.55;11.52;;;4.30;99.90;;;;;;4950916;29;20580;-71
2022/01/26 11:49:25;;;;;;;24.75;11.25;;;4.20;99.90;;;;;;4935970;28;20201;-70
2022/01/26 11:51:56;;;;;;;27.17;11.85;;;4.20;99.90;;;;;;4943054;29;20613;-70
2022/01/26 11:54:26;;;;;;;25.20;11.25;;;4.20;99.90;;;;;;4952343;29;20300;-70
2022/01/26 11:56:58;;;;;;;25.90;11.77;;;4.30;99.90;;;;;;4952995;28;20285;-71
2022/01/26 11:59:27;;;;;;;25.17;10.90;;;4.30;99.90;;;;;;4949373;29;20205;-70
2022/01/26 12:02:00;;;;;;;39.38;14.80;;;4.20;99.90;;;;;;4952291;28;20217;-71
2022/01/26 12:04:30;;;;;;;37.22;15.02;;;4.20;99.90;;;;;;4948589;29;20296;-70
2022/01/26 12:07:10;;;;;;;33.20;14.02;;;4.10;99.90;;;;;;4952764;28;20304;-70
2022/01/26 12:09:40;;;;;;;31.23;12.23;;;4.10;99.90;;;;;;4952125;28;20256;-71
2022/01/26 12:12:08;;;;;;;34.83;15.77;;;4.10;99.90;;;;;;4952362;28;20361;-70
2022/01/26 12:14:35;;;;;;;31.77;13.23;;;4.00;99.90;;;;;;4941863;29;20285;-71
2022/01/26 12:17:09;;;;;;;34.55;13.00;;;4.00;99.90;;;;;;4952039;28;20221;-71
2022/01/26 12:19:47;;;;;;;30.52;13.13;;;4.00;99.90;;;;;;4952262;28;20229;-70
2022/01/26 12:34:12;;;;;;;33.17;15.25;;;3.90;99.90;;;;;;4951568;29;20231;-70
2022/01/26 12:36:54;;;;;;;39.08;11.95;;;4.00;99.90;;;;;;4946455;28;20208;-71
2022/01/26 12:41:13;;;;;;;33.20;13.05;;;4.00;99.90;;;;;;4935343;28;20210;-71
2022/01/26 12:42:12;;;;;;;32.67;14.98;;;3.90;99.90;;;;;;4942954;29;20220;-71
2022/01/26 12:44:38;;;;;;;38.85;16.02;;;4.00;99.90;;;;;;4951065;29;20248;-71
2022/01/26 12:47:05;;;;;;;40.70;15.52;;;4.00;99.90;;;;;;4947017;28;20202;-71
2022/01/26 12:49:35;;;;;;;36.53;15.30;;;4.00;99.90;;;;;;4937027;29;20221;-70
2022/01/26 12:52:02;;;;;;;40.20;15.50;;;4.00;99.90;;;;;;4936744;29;20716;-70
2022/01/26 12:54:28;;;;;;;30.33;14.25;;;4.00;99.90;;;;;;4938888;29;20218;-70
2022/01/26 12:57:05;;;;;;;34.83;13.70;;;4.10;99.90;;;;;;4956453;28;20308;-71
2022/01/26 12:59:32;;;;;;;32.42;13.65;;;4.10;99.90;;;;;;4956246;28;20654;-70
2022/01/26 13:01:59;;;;;;;35.65;14.95;;;4.10;99.90;;;;;;4956593;28;20740;-71
2022/01/26 13:04:26;;;;;;;45.30;16.15;;;4.00;99.90;;;;;;4956233;28;20729;-71
2022/01/26 13:06:55;;;;;;;40.92;14.98;;;4.00;99.90;;;;;;4956373;28;20629;-72
2022/01/26 13:09:25;;;;;;;37.72;16.90;;;4.00;99.90;;;;;;4955872;28;20201;-71
2022/01/26 13:11:53;;;;;;;31.02;15.23;;;4.00;99.90;;;;;;4955510;28;20244;-71
2022/01/26 13:14:24;;;;;;;40.00;19.38;;;4.00;99.90;;;;;;4956131;28;20205;-71
2022/01/26 13:17:07;;;;;;;41.13;16.38;;;4.00;99.90;;;;;;4943035;28;20240;-70
2022/01/26 13:19:45;;;;;;;36.95;16.48;;;4.00;99.90;;;;;;4947936;29;20697;-72
2022/01/26 13:25:20;;;;;;;40.65;17.15;;;4.00;99.90;;;;;;4936447;29;20209;-70
2022/01/26 13:28:18;;;;;;;46.15;16.85;;;4.00;99.90;;;;;;4946713;29;20205;-71
2022/01/26 13:31:12;;;;;;;40.72;16.60;;;3.90;99.90;;;;;;4936326;29;20664;-70
2022/01/26 13:34:01;;;;;;;32.40;14.68;;;3.90;99.90;;;;;;4950065;29;20655;-70
2022/01/26 13:36:47;;;;;;;37.85;16.75;;;3.90;99.90;;;;;;4937435;29;20261;-70
2022/01/26 13:39:30;;;;;;;34.22;15.00;;;3.90;99.90;;;;;;4942874;29;20208;-70
2022/01/26 13:42:20;;;;;;;34.10;14.32;;;3.80;99.90;;;;;;4954995;28;20225;-71
2022/01/26 13:47:55;;;;;;;34.70;17.65;;;3.80;99.90;;;;;;4921172;28;20201;-70
2022/01/26 13:50:28;;;;;;;36.63;11.80;;;3.80;99.90;;;;;;4944391;28;20662;-70
2022/01/26 13:53:01;;;;;;;37.38;14.40;;;3.80;99.90;;;;;;4936401;29;20236;-69
2022/01/26 13:55:47;;;;;;;32.03;13.68;;;3.80;99.90;;;;;;4951851;29;20217;-70
2022/01/26 13:58:38;;;;;;;38.65;15.20;;;3.80;99.90;;;;;;4932360;29;20292;-71
2022/01/26 14:01:15;;;;;;;34.67;14.98;;;3.80;99.90;;;;;;4950397;29;20201;-70
2022/01/26 14:03:45;;;;;;;28.40;12.80;;;3.80;99.90;;;;;;4952494;28;20245;-71
2022/01/26 14:06:12;;;;;;;31.50;14.77;;;3.80;99.90;;;;;;4949887;29;20260;-71
2022/01/26 14:08:40;;;;;;;42.55;17.27;;;3.80;99.90;;;;;;4952525;28;20201;-70
2022/01/26 14:11:08;;;;;;;36.25;16.98;;;3.90;99.90;;;;;;4949912;28;20664;-71
2022/01/26 14:13:37;;;;;;;36.53;16.27;;;3.90;99.90;;;;;;4953228;28;20225;-71
2022/01/26 14:16:05;;;;;;;41.22;16.77;;;3.90;99.90;;;;;;4945823;28;20738;-70
2022/01/26 14:21:44;;;;;;;38.42;16.55;;;3.90;99.90;;;;;;4945394;28;20732;-70
2022/01/26 14:24:25;;;;;;;38.15;16.33;;;3.90;99.90;;;;;;4950503;28;20321;-71
2022/01/26 14:26:57;;;;;;;41.78;17.08;;;3.90;99.90;;;;;;4947048;29;20291;-70
2022/01/26 14:29:34;;;;;;;43.60;17.95;;;3.90;99.90;;;;;;4950887;28;20215;-72
2022/01/26 14:32:17;;;;;;;37.20;16.95;;;3.90;99.90;;;;;;4951595;28;20232;-70
2022/01/26 14:54:31;;;;;;;40.53;18.63;;;3.90;99.90;;;;;;4951060;29;20260;-70
2022/01/26 15:19:18;;;;;;;37.63;16.90;;;3.90;99.90;;;;;;4945750;29;20721;-73
2022/01/26 15:30:01;;;;;;;48.00;19.33;;;4.00;99.90;;;;;;4951815;29;20554;-69
2022/01/26 15:35:25;;;;;;;39.15;18.98;;;4.00;99.90;;;;;;4949241;29;20202;-70
2022/01/26 15:40:50;;;;;;;67.25;23.30;;;3.90;99.90;;;;;;4950783;29;20278;-70
2022/01/26 15:49:03;;;;;;;36.42;18.15;;;4.00;99.90;;;;;;4949091;29;20204;-71
2022/01/26 16:08:30;;;;;;;48.85;18.63;;;4.10;99.90;;;;;;4934172;28;20789;-72
2022/01/26 16:16:37;;;;;;;39.83;16.17;;;4.10;99.90;;;;;;4944584;29;20523;-72
2022/01/26 16:26:19;;;;;;;46.22;19.85;;;4.10;99.90;;;;;;4939185;28;20733;-71
2022/01/26 16:36:20;;;;;;;54.28;20.85;;;4.20;99.90;;;;;;4945480;29;20236;-70
2022/01/26 16:38:55;;;;;;;43.55;18.08;;;4.20;99.90;;;;;;4945385;28;20221;-70
2022/01/26 16:52:47;;;;;;;57.67;20.60;;;4.20;99.90;;;;;;4944752;28;20243;-71
2022/01/26 17:11:08;;;;;;;48.75;19.30;;;4.30;99.90;;;;;;4940965;28;20276;-70
2022/01/26 18:05:02;;;;;;;51.58;21.35;;;4.40;99.90;;;;;;4944174;29;20208;-70
2022/01/26 18:13:43;;;;;;;52.03;21.63;;;4.50;99.90;;;;;;4944699;29;20333;-70
2022/01/26 18:16:10;;;;;;;59.88;24.48;;;4.50;99.90;;;;;;4944347;29;20224;-70
2022/01/26 18:27:04;;;;;;;52.63;24.83;;;4.50;99.90;;;;;;4943908;29;20374;-70
2022/01/26 18:32:24;;;;;;;69.20;25.73;;;4.50;99.90;;;;;;4943168;29;20299;-70
2022/01/26 18:40:45;;;;;;;59.47;25.17;;;4.50;99.90;;;;;;4946001;29;20287;-70
2022/01/26 18:51:27;;;;;;;47.42;20.23;;;4.60;99.90;;;;;;4941520;29;20296;-70
2022/01/26 18:53:54;;;;;;;56.45;19.75;;;4.60;99.90;;;;;;4950684;28;20220;-70
2022/01/26 18:56:20;;;;;;;54.90;23.10;;;4.50;99.90;;;;;;4945797;28;20737;-70
2022/01/26 18:58:47;;;;;;;64.35;24.25;;;4.60;99.90;;;;;;4950508;28;20229;-70
2022/01/26 19:01:14;;;;;;;64.38;21.52;;;4.60;99.90;;;;;;4945864;28;20201;-70
2022/01/26 19:03:41;;;;;;;62.28;23.27;;;4.50;99.90;;;;;;4950092;28;20217;-70
2022/01/26 19:06:08;;;;;;;65.05;23.30;;;4.60;99.90;;;;;;4944877;28;20309;-70
2022/01/26 19:08:39;;;;;;;64.28;26.58;;;4.50;99.90;;;;;;4943841;28;20589;-70
2022/01/26 19:11:09;;;;;;;55.70;24.75;;;4.60;99.90;;;;;;4941122;29;20215;-70
2022/01/26 19:13:36;;;;;;;67.40;24.20;;;4.60;99.90;;;;;;4944681;29;20689;-71
2022/01/26 19:16:08;;;;;;;56.88;23.30;;;4.60;99.90;;;;;;4946732;28;20292;-70
2022/01/26 19:18:52;;;;;;;66.00;25.40;;;4.60;99.90;;;;;;4949582;28;20316;-70
2022/01/26 19:21:39;;;;;;;51.75;21.10;;;4.50;99.90;;;;;;4949829;28;20443;-70
2022/01/26 19:24:20;;;;;;;56.55;22.95;;;4.50;99.90;;;;;;4944169;28;20216;-70
2022/01/26 19:26:48;;;;;;;64.35;25.30;;;4.60;99.90;;;;;;4942931;29;20209;-70
2022/01/26 19:29:26;;;;;;;68.38;25.58;;;4.60;99.90;;;;;;4946048;28;20205;-70
2022/01/26 19:46:09;;;;;;;55.97;22.45;;;4.60;99.90;;;;;;4946161;29;20212;-71
2022/01/26 19:51:34;;;;;;;52.83;20.92;;;4.70;99.90;;;;;;4891434;29;20262;-69
2022/01/26 19:54:01;;;;;;;48.80;21.15;;;4.70;99.90;;;;;;4932381;29;20254;-69
2022/01/26 19:56:29;;;;;;;52.53;20.55;;;4.70;99.90;;;;;;4951057;28;20354;-70
2022/01/26 19:58:55;;;;;;;47.83;19.95;;;4.70;99.90;;;;;;4940334;28;20229;-70
2022/01/26 20:01:22;;;;;;;49.45;20.77;;;4.70;99.90;;;;;;4951501;28;20213;-69
2022/01/26 20:03:50;;;;;;;55.28;21.25;;;4.70;99.90;;;;;;4944722;28;20244;-68
2022/01/26 20:06:16;;;;;;;58.30;21.10;;;4.70;99.90;;;;;;4948320;29;20208;-69
2022/01/26 20:08:54;;;;;;;52.00;21.60;;;4.70;99.90;;;;;;4938508;28;20572;-69
2022/01/26 20:11:28;;;;;;;45.53;22.20;;;4.70;99.90;;;;;;4947609;29;20277;-69
2022/01/26 20:14:01;;;;;;;50.55;21.73;;;4.80;99.90;;;;;;4945286;28;20240;-68
2022/01/26 20:16:27;;;;;;;50.85;21.52;;;4.80;99.90;;;;;;4945766;29;20224;-69
2022/01/26 20:18:54;;;;;;;48.50;21.98;;;4.80;99.90;;;;;;4950080;28;20710;-69
2022/01/26 20:21:21;;;;;;;50.88;22.58;;;4.80;99.90;;;;;;4943268;29;20209;-68
2022/01/26 20:23:47;;;;;;;50.55;20.33;;;4.80;99.90;;;;;;4938798;28;20261;-69
2022/01/26 20:26:14;;;;;;;46.40;21.50;;;4.80;99.90;;;;;;4939977;29;20198;-69
2022/01/26 20:28:43;;;;;;;39.22;18.98;;;4.80;99.90;;;;;;4944232;28;20272;-68
2022/01/26 20:31:19;;;;;;;43.28;19.73;;;4.80;99.90;;;;;;4949097;28;20311;-68
2022/01/26 20:33:46;;;;;;;43.60;19.08;;;4.80;99.90;;;;;;4946975;29;20209;-69
2022/01/26 20:36:13;;;;;;;51.50;19.55;;;4.80;99.90;;;;;;4944389;28;20233;-69
2022/01/26 20:38:40;;;;;;;41.65;18.50;;;4.80;99.90;;;;;;4947779;29;20367;-69
2022/01/26 20:41:07;;;;;;;37.53;16.35;;;4.80;99.90;;;;;;4951510;28;20244;-70
2022/01/26 20:43:34;;;;;;;47.80;17.48;;;4.80;99.90;;;;;;4948218;28;20205;-69
2022/01/26 20:46:04;;;;;;;43.45;17.95;;;4.70;99.90;;;;;;4948416;29;20309;-69
2022/01/26 20:48:32;;;;;;;33.10;14.70;;;4.80;99.90;;;;;;4947873;28;20662;-69
2022/01/26 20:50:59;;;;;;;42.30;17.13;;;4.70;99.90;;;;;;4937895;29;20297;-68
2022/01/26 20:53:26;;;;;;;35.60;15.85;;;4.70;99.90;;;;;;4947801;28;20229;-69
2022/01/26 20:55:53;;;;;;;30.10;13.70;;;4.70;99.90;;;;;;4949220;28;20741;-69
2022/01/26 20:58:20;;;;;;;35.00;15.57;;;4.70;99.90;;;;;;4941258;29;20260;-69
2022/01/26 21:00:47;;;;;;;31.88;14.68;;;4.80;99.90;;;;;;4945603;28;20278;-69
2022/01/26 21:03:13;;;;;;;46.30;16.08;;;4.70;99.90;;;;;;4939813;29;20229;-68
2022/01/26 21:05:42;;;;;;;33.88;15.30;;;4.70;99.90;;;;;;4943696;29;20206;-70
2022/01/26 21:08:08;;;;;;;31.10;16.83;;;4.70;99.90;;;;;;4935466;29;20212;-69
2022/01/26 21:10:35;;;;;;;38.65;17.17;;;4.70;99.90;;;;;;4953377;29;20201;-71
2022/01/26 21:13:02;;;;;;;32.80;13.90;;;4.70;99.90;;;;;;4947710;28;20354;-70
2022/01/26 21:15:29;;;;;;;30.90;14.23;;;4.70;99.90;;;;;;4952339;28;20268;-70
2022/01/26 21:17:56;;;;;;;30.63;13.60;;;4.70;99.90;;;;;;4952984;28;20301;-69
2022/01/26 21:20:23;;;;;;;39.42;13.45;;;4.70;99.90;;;;;;4950571;29;20259;-70
2022/01/26 21:22:53;;;;;;;29.42;12.95;;;4.70;99.90;;;;;;4946100;29;20234;-70
2022/01/26 21:25:20;;;;;;;25.38;11.52;;;4.60;99.90;;;;;;4951743;29;20268;-70
2022/01/26 21:27:47;;;;;;;25.33;12.60;;;4.70;99.90;;;;;;4947856;29;20260;-70
2022/01/26 21:30:14;;;;;;;29.90;13.73;;;4.70;99.90;;;;;;4941515;29;20206;-70
2022/01/26 21:32:40;;;;;;;32.58;14.43;;;4.60;99.90;;;;;;4950147;28;20304;-70
2022/01/26 21:35:08;;;;;;;21.02;11.40;;;4.60;99.90;;;;;;4950369;29;20205;-70
2022/01/26 21:37:35;;;;;;;27.88;12.25;;;4.60;99.90;;;;;;4944295;28;20253;-70
2022/01/26 21:40:04;;;;;;;32.17;12.98;;;4.60;99.90;;;;;;4946165;29;20629;-70
2022/01/26 21:42:31;;;;;;;24.10;12.63;;;4.60;99.90;;;;;;4948311;28;20653;-70
2022/01/26 21:44:57;;;;;;;23.65;12.13;;;4.60;99.90;;;;;;4954150;28;20551;-70
2022/01/26 21:47:24;;;;;;;31.42;12.95;;;4.60;99.90;;;;;;4950608;28;20213;-70
2022/01/26 21:49:52;;;;;;;26.77;11.95;;;4.60;99.90;;;;;;4947433;28;20364;-70
2022/01/26 21:52:19;;;;;;;20.40;10.82;;;4.60;99.90;;;;;;4949292;28;20240;-70
2022/01/26 21:54:46;;;;;;;24.58;11.95;;;4.60;99.90;;;;;;4948460;29;20252;-71
2022/01/26 21:57:14;;;;;;;20.08;11.80;;;4.60;99.90;;;;;;4954259;28;20201;-71
2022/01/26 21:59:40;;;;;;;23.30;11.60;;;4.60;99.90;;;;;;4947628;29;20765;-71
